createdAt,value
2023-05-19T00:02:05.577Z,52218.34
2023-05-19T00:04:33.697Z,52191.91
2023-05-19T00:07:01.904Z,52210.22
2023-05-19T00:09:28.961Z,52208.19
2023-05-19T00:11:56.789Z,52185.81
2023-05-19T00:14:23.504Z,52185.81
2023-05-19T00:16:50.220Z,52198.00
2023-05-19T00:19:17.018Z,52216.31
2023-05-19T00:21:43.665Z,52198.00
2023-05-19T00:24:10.178Z,52195.97
2023-05-19T00:26:37.202Z,52212.25
2023-05-19T00:29:03.559Z,52195.97
2023-05-19T00:31:31.837Z,52204.13
2023-05-19T00:33:58.362Z,52212.25
2023-05-19T00:36:25.122Z,52187.84
2023-05-19T00:38:51.962Z,52214.28
2023-05-19T00:41:18.471Z,52195.97
2023-05-19T00:43:45.160Z,52169.53
2023-05-19T00:46:11.697Z,52204.13
2023-05-19T00:48:38.188Z,52224.47
2023-05-19T00:51:06.590Z,52198.00
2023-05-19T00:53:34.641Z,52220.38
2023-05-19T00:56:02.957Z,52200.03
2023-05-19T00:58:30.759Z,52230.56
2023-05-19T01:01:03.535Z,52181.72
2023-05-19T01:03:32.159Z,52167.50
2023-05-19T01:06:01.765Z,52222.41
2023-05-19T01:08:29.355Z,52230.56
2023-05-19T01:10:55.996Z,52240.75
2023-05-19T01:13:22.924Z,52195.97
2023-05-19T01:16:07.146Z,52267.19
2023-05-19T01:18:47.348Z,52257.00
2023-05-19T01:21:26.152Z,52259.03
2023-05-19T01:24:07.147Z,52238.69
2023-05-19T01:26:51.342Z,52238.69
2023-05-19T01:29:41.076Z,52244.81
2023-05-19T01:32:09.331Z,52234.63
2023-05-19T01:34:42.116Z,52246.84
2023-05-19T01:37:09.958Z,52238.69
2023-05-19T01:39:37.267Z,52250.91
2023-05-19T01:42:04.717Z,52220.38
2023-05-19T01:44:32.889Z,52242.78
2023-05-19T01:47:00.176Z,52244.81
2023-05-19T01:49:26.665Z,52263.13
2023-05-19T01:51:53.339Z,52246.84
2023-05-19T01:54:19.869Z,52265.16
2023-05-19T01:56:57.543Z,52252.94
2023-05-19T01:59:42.437Z,52265.16
2023-05-19T02:02:59.097Z,52271.25
2023-05-19T02:05:37.411Z,52265.16
2023-05-19T02:08:12.863Z,52244.81
2023-05-19T02:10:43.545Z,52212.25
2023-05-19T02:13:12.300Z,52246.84
2023-05-19T02:15:44.795Z,52293.63
2023-05-19T02:18:12.356Z,52267.19
2023-05-19T02:20:40.073Z,52271.25
2023-05-19T02:23:06.678Z,52250.91
2023-05-19T02:25:33.377Z,52265.16
2023-05-19T02:28:00.289Z,52322.13
2023-05-19T02:30:26.830Z,52261.09
2023-05-19T02:32:54.326Z,52285.50
2023-05-19T02:35:21.476Z,52293.63
2023-05-19T02:37:47.933Z,52283.47
2023-05-19T02:40:14.414Z,52297.72
2023-05-19T02:42:40.894Z,52289.56
2023-05-19T02:45:07.918Z,52281.44
2023-05-19T02:47:36.218Z,52281.44
2023-05-19T02:50:04.133Z,52293.63
2023-05-19T02:52:30.527Z,52248.88
2023-05-19T02:54:56.943Z,52263.13
2023-05-19T02:57:24.147Z,52261.09
2023-05-19T02:59:51.080Z,52281.44
2023-05-19T03:02:17.766Z,52295.66
2023-05-19T03:04:44.273Z,52269.22
2023-05-19T03:07:10.818Z,52293.63
2023-05-19T03:09:37.870Z,52305.84
2023-05-19T03:12:04.629Z,52232.59
2023-05-19T03:14:32.727Z,52254.97
2023-05-19T03:17:00.242Z,52261.09
2023-05-19T03:19:27.621Z,52265.16
2023-05-19T03:21:54.249Z,52316.03
2023-05-19T03:24:20.699Z,52285.50
2023-05-19T03:26:47.791Z,52289.56
2023-05-19T03:29:14.153Z,52259.03
2023-05-19T03:31:40.675Z,52283.47
2023-05-19T03:34:07.093Z,52287.53
2023-05-19T03:36:39.731Z,52313.97
2023-05-19T03:39:06.923Z,52309.91
2023-05-19T03:41:33.368Z,52303.81
2023-05-19T03:43:59.818Z,52281.44
2023-05-19T03:46:26.268Z,52269.22
2023-05-19T03:48:52.835Z,52305.84
2023-05-19T03:51:19.256Z,52305.84
2023-05-19T03:53:45.761Z,52305.84
2023-05-19T03:56:13.880Z,52299.75
2023-05-19T03:58:44.874Z,52259.03
2023-05-19T04:01:11.555Z,52267.19
2023-05-19T04:03:38.070Z,52303.81
2023-05-19T04:06:04.646Z,52313.97
2023-05-19T04:08:31.293Z,52322.13
2023-05-19T04:10:57.770Z,52285.50
2023-05-19T04:13:24.257Z,52301.78
2023-05-19T04:15:50.901Z,52261.09
2023-05-19T04:18:17.406Z,52354.69
2023-05-19T04:20:43.861Z,52289.56
2023-05-19T04:23:10.618Z,52307.88
2023-05-19T04:25:37.406Z,52289.56
2023-05-19T04:28:03.862Z,52297.72
2023-05-19T04:30:31.188Z,52240.75
2023-05-19T04:32:58.238Z,52293.63
2023-05-19T04:35:24.946Z,52257.00
2023-05-19T04:37:54.296Z,52222.41
2023-05-19T04:40:23.631Z,52259.03
2023-05-19T04:42:52.407Z,52226.50
2023-05-19T04:45:19.030Z,52244.81
2023-05-19T04:47:48.099Z,52269.22
2023-05-19T04:50:16.399Z,52252.94
2023-05-19T04:52:45.489Z,52250.91
2023-05-19T04:55:13.180Z,52224.47
2023-05-19T04:57:40.256Z,52246.84
2023-05-19T05:00:09.226Z,52224.47
2023-05-19T05:02:36.269Z,52232.59
2023-05-19T05:05:02.916Z,52218.34
2023-05-19T05:07:31.580Z,52259.03
2023-05-19T05:09:58.789Z,52191.91
2023-05-19T05:12:25.596Z,52216.31
2023-05-19T05:14:52.325Z,52228.53
2023-05-19T05:17:19.247Z,52238.69
2023-05-19T05:19:46.001Z,52230.56
2023-05-19T05:22:12.767Z,52208.19
2023-05-19T05:24:39.556Z,52195.97
2023-05-19T05:27:08.121Z,52195.97
2023-05-19T05:29:34.654Z,52163.41
2023-05-19T05:32:01.292Z,52198.00
2023-05-19T05:34:27.848Z,52198.00
2023-05-19T05:36:54.771Z,52167.50
2023-05-19T05:39:21.223Z,52171.56
2023-05-19T05:41:47.689Z,52145.09
2023-05-19T05:44:14.164Z,52155.28
2023-05-19T05:46:41.132Z,52139.00
2023-05-19T05:49:07.670Z,52132.91
2023-05-19T05:51:34.592Z,52094.25
2023-05-19T05:54:01.983Z,52126.78
2023-05-19T05:56:28.706Z,52112.56
2023-05-19T05:58:55.126Z,52139.00
2023-05-19T06:01:21.945Z,52120.69
2023-05-19T06:03:48.407Z,52094.25
2023-05-19T06:06:14.869Z,52128.81
2023-05-19T06:08:41.334Z,52139.00
2023-05-19T06:11:10.588Z,52112.56
2023-05-19T06:13:38.206Z,52136.97
2023-05-19T06:16:05.768Z,52124.75
2023-05-19T06:18:32.509Z,52130.88
2023-05-19T06:20:59.132Z,52124.75
2023-05-19T06:23:29.156Z,52069.81
2023-05-19T06:25:56.265Z,52096.28
2023-05-19T06:28:22.690Z,52063.72
2023-05-19T06:30:49.450Z,52086.09
2023-05-19T06:33:16.083Z,52090.16
2023-05-19T06:35:42.552Z,52043.38
2023-05-19T06:38:09.049Z,52061.69
2023-05-19T06:40:36.961Z,51959.97
2023-05-19T06:43:05.088Z,51955.88
2023-05-19T06:45:31.600Z,51882.66
2023-05-19T06:47:58.690Z,51860.25
2023-05-19T06:50:25.560Z,51868.41
2023-05-19T06:52:52.249Z,51854.16
2023-05-19T06:55:19.099Z,51841.97
2023-05-19T06:57:45.698Z,51837.88
2023-05-19T07:00:15.154Z,51805.34
2023-05-19T07:02:43.624Z,51846.03
2023-05-19T07:05:12.557Z,51846.03
2023-05-19T07:07:39.050Z,51807.38
2023-05-19T07:10:06.117Z,51811.44
2023-05-19T07:12:32.590Z,51811.44
2023-05-19T07:14:59.046Z,51815.50
2023-05-19T07:17:25.512Z,51805.34
2023-05-19T07:19:51.969Z,51805.34
2023-05-19T07:22:18.528Z,51874.50
2023-05-19T07:24:45.779Z,51844.00
2023-05-19T07:27:12.317Z,51844.00
2023-05-19T07:29:38.732Z,51835.84
2023-05-19T07:32:05.853Z,51860.25
2023-05-19T07:34:32.390Z,51813.47
2023-05-19T07:36:58.883Z,51864.34
2023-05-19T07:39:28.083Z,51827.72
2023-05-19T07:41:55.742Z,51819.56
2023-05-19T07:44:22.220Z,51809.41
2023-05-19T07:46:50.218Z,51844.00
2023-05-19T07:49:16.712Z,51846.03
2023-05-19T07:51:43.285Z,51854.16
2023-05-19T07:54:09.758Z,51872.47
2023-05-19T07:56:36.250Z,51860.25
2023-05-19T07:59:03.883Z,51850.09
2023-05-19T08:01:31.156Z,51787.03
2023-05-19T08:03:57.863Z,51858.22
2023-05-19T08:06:25.279Z,51835.84
2023-05-19T08:08:52.355Z,51858.22
2023-05-19T08:11:18.772Z,51829.75
2023-05-19T08:13:48.713Z,51803.31
2023-05-19T08:16:18.640Z,51803.31
2023-05-19T08:18:45.268Z,51821.63
2023-05-19T08:21:11.803Z,51862.31
2023-05-19T08:23:39.114Z,51833.81
2023-05-19T08:26:05.767Z,51833.81
2023-05-19T08:28:32.253Z,51817.53
2023-05-19T08:30:58.817Z,51854.16
2023-05-19T08:33:25.637Z,51823.66
2023-05-19T08:35:52.069Z,51801.25
2023-05-19T08:38:18.524Z,51835.84
2023-05-19T08:40:47.302Z,51835.84
2023-05-19T08:43:13.987Z,51807.38
2023-05-19T08:45:48.339Z,51829.75
2023-05-19T08:48:17.523Z,51852.13
2023-05-19T08:50:51.780Z,51799.22
2023-05-19T08:53:33.921Z,51801.25
2023-05-19T08:56:21.824Z,51805.34
2023-05-19T08:58:50.409Z,51811.44
2023-05-19T09:01:19.187Z,51825.69
2023-05-19T09:03:49.514Z,51801.25
2023-05-19T09:06:16.346Z,51785.00
2023-05-19T09:08:43.764Z,51789.06
2023-05-19T09:11:11.058Z,51782.97
2023-05-19T09:13:37.814Z,51772.78
2023-05-19T09:16:04.356Z,51799.22
2023-05-19T09:18:31.467Z,51797.19
2023-05-19T09:21:00.398Z,51760.56
2023-05-19T09:23:29.582Z,51793.13
2023-05-19T09:25:57.127Z,51762.63
2023-05-19T09:28:28.082Z,51754.47
2023-05-19T09:31:10.005Z,51736.16
2023-05-19T09:33:44.368Z,51756.50
2023-05-19T09:36:12.667Z,51752.44
2023-05-19T09:38:39.901Z,51746.34
2023-05-19T09:41:07.877Z,51740.22
2023-05-19T09:43:35.027Z,51782.97
2023-05-19T09:46:06.645Z,51744.31
2023-05-19T09:48:34.962Z,51756.50
2023-05-19T09:51:02.385Z,51750.41
2023-05-19T09:53:32.616Z,51793.13
2023-05-19T09:56:02.343Z,51766.69
2023-05-19T09:58:36.767Z,51770.75
2023-05-19T10:01:04.589Z,51760.56
2023-05-19T10:03:33.085Z,51795.16
2023-05-19T10:49:11.032Z,51780.91
2023-05-19T10:51:37.523Z,51760.56
2023-05-19T10:54:10.460Z,51752.44
2023-05-19T10:56:42.364Z,51756.50
2023-05-19T10:59:32.791Z,51726.00
2023-05-19T11:02:04.831Z,51742.28
2023-05-19T11:04:51.101Z,51752.44
2023-05-19T11:07:22.535Z,51752.44
2023-05-19T11:09:53.210Z,51736.16
2023-05-19T11:12:25.065Z,51732.09
2023-05-19T11:14:55.426Z,51758.53
2023-05-19T11:17:24.714Z,51760.56
2023-05-19T11:19:54.627Z,51748.38
2023-05-19T11:22:27.331Z,51760.56
2023-05-19T11:24:57.597Z,51728.03
2023-05-19T11:27:33.909Z,51740.22
2023-05-19T11:30:07.532Z,51711.75
2023-05-19T11:32:35.950Z,51723.97
2023-05-19T11:35:02.796Z,51728.03
2023-05-19T11:37:32.904Z,51719.88
2023-05-19T11:40:08.152Z,51715.81
2023-05-19T11:42:36.887Z,51782.97
2023-05-19T11:45:04.691Z,51768.72
2023-05-19T11:47:42.588Z,51740.22
2023-05-19T11:50:18.879Z,51754.47
2023-05-19T11:52:47.407Z,51713.78
2023-05-19T11:55:18.066Z,51728.03
2023-05-19T11:58:05.826Z,51752.44
2023-05-19T12:00:38.112Z,51723.97
2023-05-19T12:03:05.142Z,51764.66
2023-05-19T12:05:34.989Z,51685.31
2023-05-19T12:08:04.221Z,51691.41
2023-05-19T12:10:31.357Z,51689.38
2023-05-19T12:12:59.281Z,51738.19
2023-05-19T12:15:26.281Z,51740.22
2023-05-19T12:18:01.007Z,51711.75
2023-05-19T12:20:29.048Z,51732.09
2023-05-19T12:22:56.466Z,51764.66
2023-05-19T12:25:23.577Z,51715.81
2023-05-19T12:27:50.465Z,51730.06
2023-05-19T12:30:17.009Z,51719.88
2023-05-19T12:32:51.904Z,51705.66
2023-05-19T12:35:22.088Z,51726.00
2023-05-19T12:37:49.206Z,51691.41
2023-05-19T12:40:16.953Z,51736.16
2023-05-19T12:42:52.243Z,51695.47
2023-05-19T12:45:21.401Z,51685.31
2023-05-19T12:47:48.919Z,51715.81
2023-05-19T12:50:16.261Z,51705.66
2023-05-19T12:52:48.990Z,51683.28
2023-05-19T12:55:16.707Z,51717.84
2023-05-19T12:57:51.878Z,51699.53
2023-05-19T13:00:21.110Z,51746.34
2023-05-19T13:03:05.656Z,51746.34
2023-05-19T13:05:40.668Z,51758.53
2023-05-19T13:08:11.936Z,51770.75
2023-05-19T13:10:40.049Z,51738.19
2023-05-19T13:13:08.275Z,51770.75
2023-05-19T13:15:40.637Z,51717.84
2023-05-19T13:18:09.391Z,51758.53
2023-05-19T13:20:37.971Z,51740.22
2023-05-19T13:23:05.762Z,51762.63
2023-05-19T13:25:35.749Z,51780.91
2023-05-19T13:28:05.598Z,51738.19
2023-05-19T13:30:36.952Z,51750.41
2023-05-19T13:33:03.819Z,51736.16
2023-05-19T13:35:36.635Z,51713.78
2023-05-19T13:38:08.036Z,51736.16
2023-05-19T13:40:34.996Z,51734.13
2023-05-19T13:43:02.422Z,51776.84
2023-05-19T13:45:29.087Z,51736.16
2023-05-19T13:47:55.899Z,51734.13
2023-05-19T13:50:22.434Z,51719.88
2023-05-19T13:52:49.004Z,51726.00
2023-05-19T13:55:15.492Z,51746.34
2023-05-19T13:57:44.020Z,51736.16
2023-05-19T14:00:11.117Z,51734.13
2023-05-19T14:02:38.247Z,51742.28
2023-05-19T14:05:05.942Z,51750.41
2023-05-19T14:07:34.698Z,51768.72
2023-05-19T14:10:01.974Z,51738.19
2023-05-19T14:12:38.098Z,51752.44
2023-05-19T14:15:14.060Z,51754.47
2023-05-19T14:17:40.599Z,51699.53
2023-05-19T14:20:07.725Z,51713.78
2023-05-19T14:22:34.140Z,51723.97
2023-05-19T14:25:00.874Z,51750.41
2023-05-19T14:27:27.274Z,51746.34
2023-05-19T14:29:54.017Z,51732.09
2023-05-19T14:32:20.792Z,51760.56
2023-05-19T14:34:47.339Z,51758.53
2023-05-19T14:37:13.763Z,51760.56
2023-05-19T14:39:40.313Z,51778.88
2023-05-19T14:42:06.764Z,51780.91
2023-05-19T14:44:33.294Z,51766.69
2023-05-19T14:47:01.310Z,51772.78
2023-05-19T14:49:27.823Z,51754.47
2023-05-19T14:51:54.361Z,51837.88
2023-05-19T14:54:20.863Z,51811.44
2023-05-19T14:56:47.509Z,51819.56
2023-05-19T14:59:14.018Z,51789.06
2023-05-19T15:01:40.504Z,51772.78
2023-05-19T15:04:07.040Z,51752.44
2023-05-19T15:06:33.525Z,51791.09
2023-05-19T15:09:00.002Z,51776.84
2023-05-19T15:11:26.498Z,51797.19
2023-05-19T15:13:53.183Z,51793.13
2023-05-19T15:16:19.709Z,51776.84
2023-05-19T15:18:46.980Z,51782.97
2023-05-19T15:21:13.510Z,51809.41
2023-05-19T15:23:39.969Z,51789.06
2023-05-19T15:26:09.233Z,51782.97
2023-05-19T15:28:35.677Z,51846.03
2023-05-19T15:31:02.202Z,51813.47
2023-05-19T15:33:28.634Z,51801.25
2023-05-19T15:35:55.061Z,51776.84
2023-05-19T15:38:21.644Z,51787.03
2023-05-19T15:40:48.194Z,51768.72
2023-05-19T15:43:14.967Z,51801.25
2023-05-19T15:45:41.412Z,51809.41
2023-05-19T15:48:08.536Z,51793.13
2023-05-19T15:50:36.060Z,51837.88
2023-05-19T15:53:02.755Z,51780.91
2023-05-19T15:55:29.264Z,51811.44
2023-05-19T15:57:55.873Z,51862.31
2023-05-19T16:00:22.291Z,51850.09
2023-05-19T16:02:48.814Z,51844.00
2023-05-19T16:05:15.386Z,51846.03
2023-05-19T16:07:42.135Z,51837.88
2023-05-19T16:10:09.081Z,51829.75
2023-05-19T16:12:36.579Z,51894.84
2023-05-19T16:15:03.500Z,51870.44
2023-05-19T16:17:30.045Z,51878.56
2023-05-19T16:19:56.639Z,51878.56
2023-05-19T16:22:24.816Z,51880.63
2023-05-19T16:24:52.231Z,51882.66
2023-05-19T16:27:19.183Z,51888.75
2023-05-19T16:29:45.830Z,51872.47
2023-05-19T16:32:12.874Z,51898.91
2023-05-19T16:34:39.828Z,51872.47
2023-05-19T16:37:06.217Z,51892.81
2023-05-19T16:39:32.639Z,51874.50
2023-05-19T16:41:59.069Z,51872.47
2023-05-19T16:44:25.721Z,51903.00
2023-05-19T16:46:52.222Z,51913.16
2023-05-19T16:49:18.803Z,51886.72
2023-05-19T16:51:46.839Z,51888.75
2023-05-19T16:54:14.684Z,51923.34
2023-05-19T16:56:41.185Z,51900.97
2023-05-19T16:59:15.630Z,51911.13
2023-05-19T17:01:42.171Z,51894.84
2023-05-19T17:04:09.489Z,51931.47
2023-05-19T17:06:36.106Z,51911.13
2023-05-19T17:09:02.769Z,51923.34
2023-05-19T17:11:29.275Z,51927.41
2023-05-19T17:13:55.755Z,51927.41
2023-05-19T17:16:23.452Z,51923.34
2023-05-19T17:18:50.030Z,51898.91
2023-05-19T17:21:17.498Z,51943.69
2023-05-19T17:23:44.162Z,51933.50
2023-05-19T17:26:10.717Z,51931.47
2023-05-19T17:28:37.173Z,51929.44
2023-05-19T17:31:10.069Z,51943.69
2023-05-19T17:33:36.827Z,51937.56
2023-05-19T17:36:03.986Z,51951.81
2023-05-19T17:38:32.272Z,51931.47
2023-05-19T17:40:59.552Z,51921.31
2023-05-19T17:43:26.602Z,51941.66
2023-05-19T17:45:53.125Z,51931.47
2023-05-19T17:48:19.677Z,51925.38
2023-05-19T17:50:49.218Z,51931.47
2023-05-19T17:53:16.188Z,51947.75
2023-05-19T17:55:51.045Z,51972.16
2023-05-19T17:58:18.373Z,51982.34
2023-05-19T18:00:45.536Z,51943.69
2023-05-19T18:03:12.492Z,51929.44
2023-05-19T18:05:40.087Z,51931.47
2023-05-19T18:08:09.138Z,51949.78
2023-05-19T18:10:37.751Z,51937.56
2023-05-19T18:13:05.550Z,51951.81
2023-05-19T18:15:32.086Z,51935.53
2023-05-19T18:17:58.641Z,51972.16
2023-05-19T18:20:25.297Z,51966.06
2023-05-19T18:22:51.757Z,52004.72
2023-05-19T18:25:21.141Z,51984.38
2023-05-19T18:27:47.622Z,51966.06
2023-05-19T18:30:14.078Z,51941.66
2023-05-19T18:32:40.698Z,51984.38
2023-05-19T18:35:08.751Z,51988.44
2023-05-19T18:37:35.707Z,51976.22
2023-05-19T18:40:02.091Z,51966.06
2023-05-19T18:42:28.593Z,51976.22
2023-05-19T18:44:55.127Z,51951.81
2023-05-19T18:47:23.066Z,51980.31
2023-05-19T18:49:49.991Z,51949.78
2023-05-19T18:52:16.532Z,51972.16
2023-05-19T18:54:44.062Z,52002.69
2023-05-19T18:57:10.541Z,51994.53
2023-05-19T18:59:36.983Z,52012.84
2023-05-19T19:02:03.581Z,51986.41
2023-05-19T19:04:30.424Z,51972.16
2023-05-19T19:06:56.943Z,51996.59
2023-05-19T19:09:23.387Z,51982.34
2023-05-19T19:11:49.800Z,52004.72
2023-05-19T19:14:16.274Z,52002.69
2023-05-19T19:16:42.804Z,51994.53
2023-05-19T19:19:09.924Z,52021.00
2023-05-19T19:21:36.492Z,51988.44
2023-05-19T19:24:03.101Z,52000.66
2023-05-19T19:26:29.619Z,51978.28
2023-05-19T19:28:56.723Z,51972.16
2023-05-19T19:31:25.740Z,52025.06
2023-05-19T19:33:52.204Z,51992.50
2023-05-19T19:36:18.776Z,52012.84
2023-05-19T19:38:45.261Z,52000.66
2023-05-19T19:41:11.944Z,52045.41
2023-05-19T19:43:38.427Z,52008.78
2023-05-19T19:46:07.050Z,52002.69
2023-05-19T19:48:33.569Z,52016.94
2023-05-19T19:51:00.015Z,51978.28
2023-05-19T19:53:26.508Z,51988.44
2023-05-19T19:55:59.709Z,52029.13
2023-05-19T19:58:26.805Z,52014.88
2023-05-19T20:01:00.591Z,52016.94
2023-05-19T20:03:27.224Z,52023.03
2023-05-19T20:05:55.652Z,51992.50
2023-05-19T20:08:23.054Z,51996.59
2023-05-19T20:10:49.917Z,52033.19
2023-05-19T20:13:17.210Z,52033.19
2023-05-19T20:15:44.612Z,51992.50
2023-05-19T20:18:11.799Z,52012.84
2023-05-19T20:20:42.474Z,52012.84
2023-05-19T20:23:09.097Z,52033.19
2023-05-19T20:25:54.398Z,52041.34
2023-05-19T20:28:28.111Z,51998.63
2023-05-19T20:30:54.563Z,52029.13
2023-05-19T20:33:21.231Z,52049.47
2023-05-19T20:35:47.664Z,52012.84
2023-05-19T20:38:14.216Z,52031.16
2023-05-19T20:40:40.788Z,52010.81
2023-05-19T20:43:11.355Z,52018.97
2023-05-19T20:45:38.076Z,52051.50
2023-05-19T20:48:05.211Z,52043.38
2023-05-19T20:50:31.948Z,52027.09
2023-05-19T20:52:58.617Z,52016.94
2023-05-19T20:55:25.061Z,52055.59
2023-05-19T20:57:51.519Z,52041.34
2023-05-19T21:00:18.280Z,52021.00
2023-05-19T21:02:44.871Z,52023.03
2023-05-19T21:05:11.644Z,52043.38
2023-05-19T21:07:38.245Z,52018.97
2023-05-19T21:10:05.154Z,52031.16
2023-05-19T21:12:36.099Z,52041.34
2023-05-19T21:15:03.695Z,52039.31
2023-05-19T21:17:30.310Z,52021.00
2023-05-19T21:20:03.978Z,52053.53
2023-05-19T21:22:30.604Z,52016.94
2023-05-19T21:24:57.489Z,52045.41
2023-05-19T21:27:23.852Z,52039.31
2023-05-19T21:30:01.225Z,52051.50
2023-05-19T21:32:30.094Z,52025.06
2023-05-19T21:35:00.735Z,52031.16
2023-05-19T21:37:36.971Z,52025.06
2023-05-19T21:40:03.575Z,52053.53
2023-05-19T21:42:30.152Z,52023.03
2023-05-19T21:44:56.860Z,52027.09
2023-05-19T21:47:23.293Z,52047.44
2023-05-19T21:49:49.758Z,52063.72
2023-05-19T21:52:16.190Z,52033.19
2023-05-19T21:54:42.950Z,52094.25
2023-05-19T21:57:11.119Z,52029.13
2023-05-19T21:59:37.623Z,52018.97
2023-05-19T22:02:04.759Z,52061.69
2023-05-19T22:04:31.538Z,52080.00
2023-05-19T22:06:58.738Z,52053.53
2023-05-19T22:09:25.692Z,52023.03
2023-05-19T22:11:52.075Z,52033.19
2023-05-19T22:14:18.729Z,52035.25
2023-05-19T22:16:47.466Z,52047.44
2023-05-19T22:19:14.844Z,52043.38
2023-05-19T22:21:41.346Z,52016.94
2023-05-19T22:24:07.836Z,52061.69
2023-05-19T22:26:35.778Z,52088.13
2023-05-19T22:29:02.679Z,52029.13
2023-05-19T22:31:30.051Z,52031.16
2023-05-19T22:33:56.539Z,52031.16
2023-05-19T22:36:23.779Z,52023.03
2023-05-19T22:38:50.383Z,52049.47
2023-05-19T22:41:16.856Z,52098.31
2023-05-19T22:43:43.423Z,52037.28
2023-05-19T22:46:10.207Z,52071.84
2023-05-19T22:48:36.735Z,52029.13
2023-05-19T22:51:06.756Z,52075.94
2023-05-19T22:53:33.200Z,52073.91
2023-05-19T22:55:59.641Z,52055.59
2023-05-19T22:58:26.124Z,52061.69
2023-05-19T23:00:52.574Z,52057.63
2023-05-19T23:03:21.702Z,52057.63
2023-05-19T23:05:48.176Z,52067.78
2023-05-19T23:08:14.673Z,52053.53
2023-05-19T23:10:43.707Z,52069.81
2023-05-19T23:13:11.895Z,52055.59
2023-05-19T23:15:38.371Z,52082.03
2023-05-19T23:18:07.496Z,52075.94
2023-05-19T23:20:34.745Z,52053.53
2023-05-19T23:23:01.731Z,52080.00
2023-05-19T23:25:28.184Z,52059.66
2023-05-19T23:27:54.691Z,52071.84
2023-05-19T23:30:21.112Z,52065.75
2023-05-19T23:32:47.905Z,52096.28
2023-05-19T23:35:16.414Z,52043.38
2023-05-19T23:37:43.026Z,52067.78
2023-05-19T23:40:09.844Z,52082.03
2023-05-19T23:42:39.280Z,52098.31
2023-05-19T23:45:06.223Z,52094.25
2023-05-19T23:47:33.149Z,52059.66
2023-05-19T23:49:59.558Z,52063.72
2023-05-19T23:52:26.032Z,52077.97
2023-05-19T23:55:13.246Z,52063.72
2023-05-19T23:57:39.782Z,52041.34
